Johnsonville, South Dakota
Current Conditions -  °F | °C
As of 7:33 PM on Monday 22 Dec 2014 (Local Time) from KCNB Reporting Station
Light Rain Light Rain  
Wind Chill: 26°   Ceiling: 400
Heat Index: 35°   Visibility: 4mi
Dew Point: 35°   Wind: 13mph
Humidity: 99%   Direction: 100°E
Pressure: 29.53"   Gusts: NA
Location:  44.5872°N, 96.7638°W
Report Text: KCNB 230133Z AUTO 10011KT 4SM -RA OVC004 02/02 A2953 RMK AO2 T00170016
Loading
Personal Weather Stations






























Interactive Weather Map New forecast layout! Learn more

10-Day Weather Forecast

Advertisements
Track Severe Weather on mobile